Time;durP1;ratioP1;P1;durP2;ratioP2;P2;SDS_P1;SDS_P2;PMS_P1;PMS_P2;Temp;Humidity;BMP_temperature;BMP_pressure;BME280_temperature;BME280_humidity;BME280_pressure;Samples;Min_cycle;Max_cycle;Signal;HPM_P1;HPM_P2
2023/10/15 00:00:24;;;;;;;2.47;1.20;;;15.50;67.90;14.40;96600.00;;;;5096273;28;20199;-80
2023/10/15 00:02:53;;;;;;;1.80;1.20;;;15.50;67.60;14.40;96605.00;;;;5096994;28;20203;-80
2023/10/15 00:05:22;;;;;;;1.77;1.10;;;15.50;68.10;14.40;96608.00;;;;5096896;28;20301;-79
2023/10/15 00:07:52;;;;;;;2.97;1.03;;;15.50;67.40;14.40;96602.00;;;;5090221;28;20282;-80
2023/10/15 00:10:21;;;;;;;2.33;0.97;;;15.50;67.80;14.40;96604.00;;;;5094361;28;20199;-80
2023/10/15 00:12:51;;;;;;;2.67;1.20;;;15.50;67.60;14.40;96595.00;;;;5090158;28;20223;-79
2023/10/15 00:15:23;;;;;;;2.27;1.00;;;15.50;67.50;14.40;96598.00;;;;5096024;28;20218;-80
2023/10/15 00:17:54;;;;;;;1.60;1.40;;;15.50;67.50;14.40;96603.00;;;;5093835;28;20741;-80
2023/10/15 00:20:27;;;;;;;1.43;1.17;;;15.50;67.50;14.40;96600.00;;;;5092411;28;20282;-80
2023/10/15 00:22:55;;;;;;;2.33;1.07;;;15.50;67.80;14.40;96601.00;;;;5095609;28;20574;-81
2023/10/15 00:25:22;;;;;;;1.90;1.37;;;15.50;67.80;14.40;96610.00;;;;5097646;28;20591;-80
2023/10/15 00:27:54;;;;;;;2.50;0.83;;;15.50;67.80;14.40;96603.00;;;;5095767;28;20223;-80
2023/10/15 00:30:23;;;;;;;1.37;1.03;;;15.50;67.90;14.40;96602.00;;;;5098573;28;20187;-80
2023/10/15 00:32:52;;;;;;;2.07;1.00;;;15.50;67.90;14.40;96593.00;;;;5090229;28;20230;-79
2023/10/15 00:35:20;;;;;;;3.47;1.30;;;15.50;67.90;14.40;96597.00;;;;5097949;28;20219;-80
2023/10/15 00:37:54;;;;;;;2.10;1.10;;;15.50;68.00;14.40;96595.00;;;;5095372;28;20204;-80
2023/10/15 00:40:22;;;;;;;1.97;1.00;;;15.50;67.50;14.40;96598.00;;;;5095022;28;20609;-79
2023/10/15 00:42:49;;;;;;;2.70;1.50;;;15.50;67.30;14.40;96609.00;;;;5091158;28;20209;-80
2023/10/15 00:45:18;;;;;;;1.50;1.40;;;15.50;67.50;14.40;96604.00;;;;5097486;28;20304;-80
2023/10/15 00:47:51;;;;;;;2.57;0.97;;;15.50;67.80;14.40;96607.00;;;;5095016;28;20209;-79
2023/10/15 00:50:20;;;;;;;1.63;1.10;;;15.50;67.90;14.30;96606.00;;;;5089951;28;20200;-79
2023/10/15 00:52:49;;;;;;;2.33;1.73;;;15.50;67.80;14.30;96603.00;;;;5091798;28;20699;-80
2023/10/15 00:55:20;;;;;;;2.07;1.27;;;15.50;67.60;14.30;96603.00;;;;5097479;28;20223;-79
2023/10/15 00:57:56;;;;;;;1.80;1.40;;;15.50;67.40;14.30;96595.00;;;;5090352;28;20215;-80
2023/10/15 01:00:47;;;;;;;1.90;1.10;;;15.50;67.50;14.30;96595.00;;;;5092714;28;20198;-81
2023/10/15 01:03:17;;;;;;;1.53;0.80;;;15.40;67.60;14.20;96601.00;;;;5089904;28;20699;-80
2023/10/15 01:05:53;;;;;;;2.27;1.00;;;15.40;67.50;14.20;96610.00;;;;5093456;28;20260;-81
2023/10/15 01:08:31;;;;;;;1.10;0.90;;;15.40;67.60;14.20;96611.00;;;;5097170;28;20205;-80
2023/10/15 01:11:15;;;;;;;3.33;1.60;;;15.40;67.60;14.20;96606.00;;;;5093306;28;20222;-80
2023/10/15 01:13:42;;;;;;;0.73;0.73;;;15.40;67.10;14.20;96605.00;;;;5087992;28;20263;-81
2023/10/15 01:16:13;;;;;;;2.43;1.40;;;15.30;67.20;14.20;96612.00;;;;5095230;28;20226;-80
2023/10/15 01:18:40;;;;;;;4.77;1.50;;;15.30;67.10;14.10;96603.00;;;;5093636;28;20278;-80
2023/10/15 01:21:13;;;;;;;2.47;1.03;;;15.30;67.30;14.10;96604.00;;;;5101763;28;20190;-80
2023/10/15 01:23:59;;;;;;;0.83;0.70;;;15.30;67.50;14.10;96595.00;;;;5094192;28;20248;-80
2023/10/15 01:26:34;;;;;;;2.20;1.00;;;15.30;67.60;14.10;96597.00;;;;5098203;28;20246;-80
2023/10/15 01:29:01;;;;;;;3.10;1.00;;;15.20;67.20;14.00;96594.00;;;;5102280;28;20727;-79
2023/10/15 01:31:29;;;;;;;3.13;1.00;;;15.20;67.10;14.00;96599.00;;;;5097904;28;20203;-80
2023/10/15 01:33:56;;;;;;;1.63;1.10;;;15.20;67.40;14.00;96589.00;;;;5095912;28;20218;-80
2023/10/15 01:36:27;;;;;;;0.70;0.60;;;15.20;67.50;14.00;96590.00;;;;5096145;28;20241;-79
2023/10/15 01:38:57;;;;;;;2.00;0.97;;;15.20;67.60;13.90;96584.00;;;;5092616;28;20210;-80
2023/10/15 01:41:26;;;;;;;1.43;0.93;;;15.20;67.70;13.90;96591.00;;;;5093758;28;20747;-79
2023/10/15 01:43:56;;;;;;;1.67;0.90;;;15.20;67.60;13.90;96586.00;;;;5094582;28;20203;-79
2023/10/15 01:46:41;;;;;;;4.27;1.40;;;15.10;67.40;13.90;96579.00;;;;5093132;28;20862;-80
2023/10/15 01:49:08;;;;;;;2.43;0.90;;;15.10;67.40;13.90;96588.00;;;;5089744;28;20306;-80
2023/10/15 01:51:40;;;;;;;1.33;1.00;;;15.10;67.00;13.80;96573.00;;;;5088743;28;20203;-79
2023/10/15 01:54:09;;;;;;;1.37;1.07;;;15.10;66.70;13.80;96580.00;;;;5093943;28;20211;-80
2023/10/15 01:56:37;;;;;;;2.33;0.90;;;15.10;66.50;13.70;96574.00;;;;5093427;28;20226;-80
2023/10/15 01:59:09;;;;;;;2.97;1.27;;;15.00;66.80;13.70;96579.00;;;;5097745;28;20187;-80
2023/10/15 02:01:40;;;;;;;1.00;0.90;;;15.00;67.00;13.70;96567.00;;;;5105921;28;20198;-80
2023/10/15 02:04:14;;;;;;;2.13;0.80;;;14.90;67.00;13.60;96575.00;;;;5100125;28;20204;-79
2023/10/15 02:06:44;;;;;;;1.73;0.73;;;14.90;67.80;13.60;96555.00;;;;5098485;28;20234;-80
2023/10/15 02:09:13;;;;;;;0.77;0.70;;;14.90;67.40;13.50;96563.00;;;;5095559;28;20652;-80
2023/10/15 02:11:47;;;;;;;1.73;1.00;;;14.80;66.90;13.50;96563.00;;;;5092060;28;20198;-80
2023/10/15 02:14:21;;;;;;;1.93;0.90;;;14.80;66.90;13.40;96560.00;;;;5093194;28;20203;-79
2023/10/15 02:16:50;;;;;;;2.13;0.90;;;14.80;66.90;13.40;96560.00;;;;5093631;28;20237;-79
2023/10/15 02:19:32;;;;;;;2.03;0.90;;;14.80;66.90;13.40;96563.00;;;;5092586;28;20286;-79
2023/10/15 02:21:59;;;;;;;2.37;1.40;;;14.70;66.90;13.30;96563.00;;;;5093707;28;20206;-79
2023/10/15 02:24:31;;;;;;;1.43;0.93;;;14.70;66.70;13.30;96561.00;;;;5092222;28;20198;-79
2023/10/15 02:26:59;;;;;;;1.90;1.10;;;14.60;66.70;13.20;96560.00;;;;5092036;28;20798;-79
2023/10/15 02:29:36;;;;;;;2.53;1.20;;;14.60;66.80;13.20;96562.00;;;;5093870;28;20194;-79
2023/10/15 02:32:20;;;;;;;3.93;1.27;;;14.50;66.80;13.10;96574.00;;;;5087679;28;20191;-79
2023/10/15 02:34:50;;;;;;;3.13;0.90;;;14.50;66.80;13.10;96560.00;;;;5091496;28;20676;-79
2023/10/15 02:37:18;;;;;;;2.00;1.00;;;14.50;66.70;13.10;96564.00;;;;5093072;28;20199;-79
2023/10/15 02:39:50;;;;;;;2.33;1.00;;;14.40;66.80;13.00;96566.00;;;;5091889;28;20253;-79
2023/10/15 02:42:18;;;;;;;0.90;0.80;;;14.40;66.90;13.00;96565.00;;;;5090309;28;20560;-79
2023/10/15 02:44:50;;;;;;;1.70;0.83;;;14.40;66.90;13.00;96566.00;;;;5093282;28;20203;-79
2023/10/15 02:47:28;;;;;;;1.27;1.10;;;14.30;66.90;12.90;96569.00;;;;5090956;28;20191;-79
2023/10/15 02:50:00;;;;;;;1.97;1.10;;;14.30;66.90;12.90;96570.00;;;;5091772;28;20199;-80
2023/10/15 02:52:35;;;;;;;2.67;1.07;;;14.30;66.80;12.80;96577.00;;;;5092805;28;20219;-79
2023/10/15 02:55:09;;;;;;;1.33;1.00;;;14.30;66.70;12.80;96560.00;;;;5087423;28;20679;-80
2023/10/15 02:57:40;;;;;;;1.73;0.87;;;14.20;66.90;12.80;96571.00;;;;5089845;28;20198;-81
2023/10/15 03:00:18;;;;;;;1.17;1.00;;;14.20;67.60;12.70;96573.00;;;;5091100;28;20286;-80
2023/10/15 03:02:46;;;;;;;1.40;1.00;;;14.10;66.90;12.70;96574.00;;;;5087430;28;20199;-80
2023/10/15 03:05:14;;;;;;;1.77;1.10;;;14.10;66.80;12.60;96571.00;;;;5090939;28;20707;-80
2023/10/15 03:07:45;;;;;;;2.33;0.90;;;14.00;66.70;12.60;96582.00;;;;5089542;28;20590;-80
2023/10/15 03:10:21;;;;;;;3.20;0.90;;;14.00;66.70;12.60;96589.00;;;;5087752;28;20233;-80
2023/10/15 03:12:50;;;;;;;1.90;1.10;;;14.00;66.70;12.60;96579.00;;;;5090589;28;20226;-80
2023/10/15 03:15:20;;;;;;;1.70;1.00;;;14.00;67.00;12.50;96586.00;;;;5088824;28;20639;-79
2023/10/15 03:17:48;;;;;;;1.43;0.90;;;13.90;67.30;12.50;96577.00;;;;5090757;28;20205;-80
2023/10/15 03:20:28;;;;;;;2.10;0.90;;;13.90;67.30;12.50;96579.00;;;;5089333;28;20674;-80
2023/10/15 03:22:59;;;;;;;1.80;0.93;;;13.90;67.10;12.50;96583.00;;;;5089769;28;20207;-80
2023/10/15 03:25:28;;;;;;;1.13;0.90;;;13.90;67.10;12.50;96578.00;;;;5091906;28;20585;-80
2023/10/15 03:28:00;;;;;;;2.60;1.00;;;13.80;67.20;12.50;96570.00;;;;5092289;28;20210;-79
2023/10/15 03:30:33;;;;;;;1.27;1.00;;;13.80;67.20;12.40;96561.00;;;;5092293;28;20198;-80
2023/10/15 03:33:01;;;;;;;3.70;0.87;;;13.80;67.10;12.40;96575.00;;;;5092316;28;20226;-79
2023/10/15 03:35:32;;;;;;;1.77;0.93;;;13.80;67.10;12.30;96578.00;;;;5091990;28;20242;-80
2023/10/15 03:38:05;;;;;;;2.37;1.20;;;13.70;67.00;12.30;96573.00;;;;5092105;28;20571;-80
2023/10/15 03:40:39;;;;;;;1.00;0.87;;;13.70;67.10;12.30;96576.00;;;;5092463;28;20290;-80
2023/10/15 03:43:15;;;;;;;1.10;0.90;;;13.70;67.20;12.30;96572.00;;;;5091413;28;20225;-80
2023/10/15 03:45:51;;;;;;;1.27;0.83;;;13.70;67.20;12.20;96581.00;;;;5092160;28;20225;-80
2023/10/15 03:48:21;;;;;;;3.33;1.00;;;13.60;67.10;12.20;96578.00;;;;5090660;28;20199;-80
2023/10/15 03:50:59;;;;;;;3.67;0.90;;;13.60;67.00;12.20;96571.00;;;;5090958;28;20674;-80
2023/10/15 03:53:29;;;;;;;2.53;1.30;;;13.60;67.10;12.20;96568.00;;;;5107375;27;20215;-80
2023/10/15 03:56:01;;;;;;;2.40;0.87;;;13.60;67.20;12.10;96564.00;;;;5084946;28;20212;-79
2023/10/15 03:58:28;;;;;;;1.73;0.93;;;13.50;67.10;12.10;96568.00;;;;5089804;28;20199;-80
2023/10/15 04:01:12;;;;;;;2.53;0.83;;;13.50;66.90;12.00;96567.00;;;;5088800;28;20223;-79
2023/10/15 04:03:42;;;;;;;1.77;1.00;;;13.50;66.90;12.00;96576.00;;;;5087323;28;20195;-80
2023/10/15 04:06:10;;;;;;;1.00;0.90;;;13.50;67.00;12.00;96567.00;;;;5091598;28;20272;-79
2023/10/15 04:08:38;;;;;;;1.00;0.80;;;13.40;67.10;12.00;96560.00;;;;5091847;28;20207;-79
2023/10/15 04:11:06;;;;;;;3.80;1.53;;;13.40;67.30;12.00;96556.00;;;;5092164;28;20194;-79
2023/10/15 04:13:35;;;;;;;1.50;1.40;;;13.40;67.50;12.00;96571.00;;;;5090294;28;20654;-80
2023/10/15 04:16:03;;;;;;;2.00;1.27;;;13.40;67.40;11.90;96558.00;;;;5087440;28;20622;-79
2023/10/15 04:18:30;;;;;;;1.60;1.50;;;13.30;67.50;12.00;96560.00;;;;5090315;28;20207;-79
2023/10/15 04:20:58;;;;;;;1.43;1.30;;;13.40;67.80;11.90;96558.00;;;;5092107;28;20198;-79
2023/10/15 04:23:31;;;;;;;1.07;1.00;;;13.30;67.90;12.00;96571.00;;;;5091750;28;20203;-79
2023/10/15 04:26:02;;;;;;;1.27;1.17;;;13.30;68.10;11.90;96569.00;;;;5091926;28;20596;-79
2023/10/15 04:28:30;;;;;;;1.20;1.07;;;13.30;68.00;12.00;96560.00;;;;5091728;28;20202;-79
2023/10/15 04:30:58;;;;;;;1.00;0.90;;;13.30;68.10;12.00;96556.00;;;;5092907;28;20210;-79
2023/10/15 04:33:30;;;;;;;1.20;0.83;;;13.30;68.30;12.00;96563.00;;;;5099725;28;20223;-79
2023/10/15 04:35:57;;;;;;;1.43;1.17;;;13.30;68.40;12.00;96557.00;;;;5105583;28;20223;-80
2023/10/15 04:38:28;;;;;;;1.57;1.47;;;13.40;68.40;12.00;96562.00;;;;5106249;28;20217;-79
2023/10/15 04:41:03;;;;;;;1.67;1.17;;;13.40;68.40;12.00;96559.00;;;;5104761;28;20598;-80
2023/10/15 04:43:41;;;;;;;1.50;1.00;;;13.40;68.30;12.00;96549.00;;;;5095822;28;20210;-79
2023/10/15 04:46:09;;;;;;;3.37;1.20;;;13.30;68.50;12.00;96552.00;;;;5089084;28;20226;-79
2023/10/15 04:48:37;;;;;;;2.10;1.03;;;13.40;68.60;12.00;96551.00;;;;5089814;28;20195;-79
2023/10/15 04:51:12;;;;;;;2.50;1.30;;;13.40;68.40;12.00;96556.00;;;;5092306;28;20240;-79
2023/10/15 04:53:42;;;;;;;1.80;0.70;;;13.40;68.30;12.00;96555.00;;;;5093250;28;20706;-79
2023/10/15 04:56:09;;;;;;;1.37;1.27;;;13.40;68.30;12.00;96555.00;;;;5093598;28;20230;-79
2023/10/15 04:58:36;;;;;;;2.70;1.07;;;13.40;68.50;12.10;96552.00;;;;5093734;28;20225;-79
2023/10/15 05:01:05;;;;;;;1.20;1.00;;;13.40;68.60;12.10;96559.00;;;;5094633;28;20206;-79
2023/10/15 05:03:36;;;;;;;2.17;1.20;;;13.40;68.70;12.10;96561.00;;;;5095146;28;20656;-79
2023/10/15 05:06:10;;;;;;;1.73;0.90;;;13.40;68.80;12.10;96561.00;;;;5087150;28;20614;-79
2023/10/15 05:08:40;;;;;;;1.90;0.97;;;13.40;68.80;12.10;96567.00;;;;5091832;28;20566;-79
2023/10/15 05:11:09;;;;;;;2.07;1.10;;;13.40;68.90;12.20;96573.00;;;;5095605;28;20191;-79
2023/10/15 05:13:36;;;;;;;1.33;1.10;;;13.50;69.00;12.20;96566.00;;;;5091342;28;20227;-79
2023/10/15 05:16:04;;;;;;;3.33;1.53;;;13.50;69.00;12.20;96556.00;;;;5093599;28;20281;-79
2023/10/15 05:18:32;;;;;;;2.57;1.33;;;13.50;68.90;12.20;96568.00;;;;5094345;28;20211;-79
2023/10/15 05:21:00;;;;;;;1.47;1.30;;;13.50;68.90;12.30;96564.00;;;;5094718;28;20600;-79
2023/10/15 05:23:29;;;;;;;1.30;1.07;;;13.60;69.00;12.30;96559.00;;;;5094764;28;20252;-79
2023/10/15 05:25:57;;;;;;;2.47;1.07;;;13.60;69.10;12.30;96549.00;;;;5094492;28;20607;-79
2023/10/15 05:28:26;;;;;;;1.53;1.33;;;13.60;69.00;12.40;96553.00;;;;5093284;28;20195;-79
2023/10/15 05:30:53;;;;;;;2.70;1.20;;;13.60;68.80;12.40;96557.00;;;;5093293;28;20682;-79
2023/10/15 05:33:20;;;;;;;3.80;1.43;;;13.60;68.90;12.40;96566.00;;;;5094093;28;20219;-79
2023/10/15 05:35:48;;;;;;;2.33;1.30;;;13.60;68.90;12.40;96562.00;;;;5093461;28;20310;-79
2023/10/15 05:38:16;;;;;;;2.77;1.50;;;13.70;68.90;12.40;96560.00;;;;5093250;28;20211;-79
2023/10/15 05:40:45;;;;;;;1.20;0.97;;;13.70;68.80;12.40;96569.00;;;;5094652;28;20266;-79
2023/10/15 05:43:12;;;;;;;1.47;1.00;;;13.70;68.80;12.50;96565.00;;;;5095084;28;20200;-80
2023/10/15 05:45:40;;;;;;;1.33;0.93;;;13.70;68.80;12.50;96576.00;;;;5092459;28;20265;-79
2023/10/15 05:48:08;;;;;;;0.90;0.80;;;13.80;68.90;12.50;96576.00;;;;5092216;28;20206;-79
2023/10/15 05:50:35;;;;;;;1.37;1.27;;;13.80;69.00;12.50;96577.00;;;;5091413;28;20206;-79
2023/10/15 05:53:02;;;;;;;1.53;0.83;;;13.80;68.90;12.60;96586.00;;;;5090278;28;20202;-79
2023/10/15 05:55:32;;;;;;;1.60;1.10;;;13.80;68.90;12.60;96590.00;;;;5092235;28;20226;-79
2023/10/15 05:58:00;;;;;;;2.43;1.53;;;13.80;68.80;12.60;96590.00;;;;5093338;28;20195;-79
2023/10/15 06:00:28;;;;;;;2.40;1.60;;;13.90;68.90;12.60;96580.00;;;;5093989;28;20197;-79
2023/10/15 06:02:58;;;;;;;3.63;1.60;;;13.90;68.90;12.60;96587.00;;;;5093827;28;20197;-79
2023/10/15 06:05:28;;;;;;;4.17;2.13;;;13.90;68.90;12.60;96582.00;;;;5093937;28;20219;-79
2023/10/15 06:07:55;;;;;;;3.53;2.10;;;13.90;68.80;12.70;96592.00;;;;5093927;28;20224;-79
2023/10/15 06:10:22;;;;;;;2.30;1.47;;;14.00;68.90;12.70;96596.00;;;;5093820;28;20260;-79
2023/10/15 06:12:50;;;;;;;2.27;1.60;;;14.00;68.70;12.70;96595.00;;;;5092538;28;20199;-79
2023/10/15 06:15:18;;;;;;;4.70;2.17;;;14.00;68.70;12.70;96604.00;;;;5106280;28;20227;-79
2023/10/15 06:17:46;;;;;;;3.90;2.10;;;14.00;69.50;12.70;96608.00;;;;5075275;28;20232;-79
2023/10/15 06:20:13;;;;;;;2.80;2.17;;;14.00;68.80;12.80;96599.00;;;;5093964;28;20195;-79
2023/10/15 06:22:41;;;;;;;3.03;2.07;;;14.00;68.70;12.80;96609.00;;;;5093536;28;20278;-79
2023/10/15 06:25:09;;;;;;;2.30;1.60;;;14.10;68.80;12.80;96613.00;;;;5092463;28;20306;-79
2023/10/15 06:27:38;;;;;;;3.40;1.50;;;14.10;68.80;12.80;96615.00;;;;5090186;28;20195;-79
2023/10/15 06:30:09;;;;;;;1.13;1.07;;;14.10;68.70;12.80;96610.00;;;;5093575;28;20245;-79
2023/10/15 06:32:38;;;;;;;2.30;1.50;;;14.10;68.70;12.90;96611.00;;;;5075600;28;20199;-80
2023/10/15 06:35:07;;;;;;;3.17;1.97;;;14.10;69.40;12.90;96613.00;;;;5092137;28;20233;-79
2023/10/15 06:37:34;;;;;;;2.30;1.50;;;14.10;68.60;12.90;96620.00;;;;5091017;28;20203;-79
2023/10/15 06:40:02;;;;;;;4.23;1.70;;;14.20;68.70;12.90;96611.00;;;;5091197;28;20202;-79
2023/10/15 06:42:29;;;;;;;4.57;1.63;;;14.20;68.80;13.00;96602.00;;;;5091352;28;20244;-79
2023/10/15 06:44:56;;;;;;;3.10;1.60;;;14.20;68.80;13.00;96603.00;;;;5090107;28;21626;-79
2023/10/15 06:47:24;;;;;;;1.97;1.23;;;14.20;68.80;13.00;96608.00;;;;5089891;28;20195;-79
2023/10/15 06:49:54;;;;;;;3.37;1.40;;;14.30;68.90;13.00;96614.00;;;;5091140;28;20291;-79
2023/10/15 06:52:21;;;;;;;3.43;1.40;;;14.30;69.00;13.10;96615.00;;;;5091891;28;20191;-79
2023/10/15 06:54:48;;;;;;;2.23;1.40;;;14.30;68.90;13.10;96615.00;;;;5092853;28;20764;-79
2023/10/15 06:57:17;;;;;;;2.77;1.53;;;14.30;68.90;13.10;96621.00;;;;5091769;28;20240;-79
2023/10/15 06:59:44;;;;;;;2.50;1.27;;;14.40;68.90;13.10;96617.00;;;;5093151;28;20197;-79
2023/10/15 07:02:13;;;;;;;1.80;1.07;;;14.40;69.60;13.20;96619.00;;;;5093267;28;20192;-79
2023/10/15 07:04:40;;;;;;;4.40;1.60;;;14.40;68.80;13.20;96612.00;;;;5089414;28;20195;-79
2023/10/15 07:07:09;;;;;;;2.30;1.40;;;14.40;68.80;13.20;96610.00;;;;5091986;28;20283;-81
2023/10/15 07:09:37;;;;;;;1.97;1.50;;;14.40;68.80;13.30;96612.00;;;;5097349;28;20227;-79
2023/10/15 07:12:05;;;;;;;2.40;1.30;;;14.50;68.80;13.30;96610.00;;;;5099065;28;20191;-79
2023/10/15 07:14:32;;;;;;;3.00;1.20;;;14.50;68.80;13.30;96602.00;;;;5099655;28;20301;-79
2023/10/15 07:17:00;;;;;;;1.80;1.20;;;14.50;69.60;13.40;96607.00;;;;5098540;28;20691;-79
2023/10/15 07:19:27;;;;;;;2.17;1.23;;;14.60;68.90;13.40;96599.00;;;;5093068;28;20219;-79
2023/10/15 07:21:55;;;;;;;1.80;1.57;;;14.60;68.80;13.40;96601.00;;;;5092986;28;20203;-79
2023/10/15 07:24:24;;;;;;;1.23;1.00;;;14.60;68.90;13.50;96606.00;;;;5092638;28;20664;-79
2023/10/15 07:26:52;;;;;;;3.17;1.87;;;14.70;68.90;13.50;96627.00;;;;5092721;28;20226;-79
2023/10/15 07:29:19;;;;;;;2.50;1.50;;;14.70;68.90;13.60;96630.00;;;;5092146;28;20282;-80
2023/10/15 07:31:48;;;;;;;2.10;1.20;;;14.70;68.60;13.60;96622.00;;;;5091055;28;20195;-79
2023/10/15 07:34:16;;;;;;;1.50;1.00;;;14.80;68.60;13.60;96620.00;;;;5091312;28;20223;-79
2023/10/15 07:36:45;;;;;;;1.73;0.70;;;14.80;68.60;13.70;96635.00;;;;5090534;28;20278;-80
2023/10/15 07:39:12;;;;;;;2.03;1.20;;;14.80;68.50;13.70;96642.00;;;;5090145;28;20207;-80
2023/10/15 07:41:41;;;;;;;1.90;1.03;;;14.80;68.30;13.80;96640.00;;;;5092071;28;20191;-80
2023/10/15 07:44:08;;;;;;;2.37;0.90;;;14.90;68.40;13.80;96638.00;;;;5092696;28;20305;-80
2023/10/15 07:46:35;;;;;;;3.27;1.07;;;14.90;68.40;13.80;96638.00;;;;5090964;28;20215;-81
2023/10/15 07:49:03;;;;;;;1.70;1.00;;;15.00;68.30;13.90;96646.00;;;;5091093;28;20187;-80
2023/10/15 07:51:30;;;;;;;2.30;1.00;;;15.00;68.60;13.90;96649.00;;;;5092155;28;20199;-79
2023/10/15 07:53:57;;;;;;;1.50;0.90;;;15.00;67.80;13.90;96652.00;;;;5091763;28;20582;-80
2023/10/15 07:56:24;;;;;;;3.03;1.20;;;15.00;67.70;13.90;96643.00;;;;5092326;28;20250;-80
2023/10/15 07:58:53;;;;;;;1.63;1.30;;;15.00;67.50;13.90;96636.00;;;;5091587;28;20192;-80
2023/10/15 08:01:20;;;;;;;2.80;1.10;;;15.00;67.10;13.90;96621.00;;;;5090610;28;20636;-80
2023/10/15 08:03:47;;;;;;;5.13;1.10;;;15.00;67.40;14.00;96625.00;;;;5092209;28;20207;-79
2023/10/15 08:06:14;;;;;;;3.23;1.23;;;15.10;67.80;14.00;96621.00;;;;5091217;28;20229;-80
2023/10/15 08:08:42;;;;;;;1.00;0.90;;;15.10;67.80;14.00;96630.00;;;;5093264;28;20282;-80
2023/10/15 08:11:10;;;;;;;1.83;0.90;;;15.10;67.90;14.00;96622.00;;;;5074797;28;20199;-79
2023/10/15 08:13:37;;;;;;;1.60;0.80;;;15.10;68.10;14.10;96625.00;;;;5096288;28;20201;-80
2023/10/15 08:16:07;;;;;;;1.23;0.90;;;15.20;68.30;14.10;96627.00;;;;5096242;28;20234;-79
2023/10/15 08:18:34;;;;;;;2.77;1.00;;;15.20;68.40;14.20;96624.00;;;;5091203;28;20203;-79
2023/10/15 08:21:01;;;;;;;2.17;1.00;;;15.30;68.60;14.20;96624.00;;;;5095315;28;20278;-80
2023/10/15 08:23:29;;;;;;;5.00;1.40;;;15.30;68.60;14.30;96635.00;;;;5096517;28;20199;-79
2023/10/15 08:25:56;;;;;;;1.77;1.07;;;15.30;68.40;14.30;96634.00;;;;5094264;28;20219;-79
2023/10/15 08:28:26;;;;;;;1.80;1.13;;;15.40;68.20;14.30;96634.00;;;;5095952;28;20199;-80
2023/10/15 08:30:54;;;;;;;3.60;1.20;;;15.40;68.10;14.30;96634.00;;;;5094375;28;20652;-79
2023/10/15 08:33:23;;;;;;;1.83;1.00;;;15.40;67.90;14.40;96639.00;;;;5094538;28;20655;-82
2023/10/15 08:35:50;;;;;;;2.53;1.40;;;15.50;67.80;14.40;96631.00;;;;5096278;28;20260;-79
2023/10/15 08:38:17;;;;;;;1.63;0.97;;;15.50;67.60;14.40;96627.00;;;;5092456;28;20233;-80
2023/10/15 08:40:46;;;;;;;2.20;0.87;;;15.50;67.30;14.40;96626.00;;;;5092715;28;20192;-80
2023/10/15 08:43:20;;;;;;;2.47;1.20;;;15.50;67.20;14.40;96633.00;;;;5093343;28;20203;-80
2023/10/15 08:45:49;;;;;;;2.60;1.23;;;15.50;67.40;14.40;96626.00;;;;5092729;28;20294;-79
2023/10/15 08:48:20;;;;;;;1.60;1.20;;;15.50;67.50;14.40;96625.00;;;;5095315;28;20195;-79
2023/10/15 08:50:49;;;;;;;1.30;0.97;;;15.60;67.50;14.40;96642.00;;;;5095798;28;20685;-79
2023/10/15 08:53:18;;;;;;;2.67;1.13;;;15.60;67.30;14.50;96642.00;;;;5095742;28;20203;-80
2023/10/15 08:55:46;;;;;;;1.50;1.10;;;15.60;67.10;14.40;96639.00;;;;5095075;28;20737;-79
2023/10/15 08:58:18;;;;;;;2.33;1.00;;;15.60;67.30;14.40;96650.00;;;;5093909;28;20571;-79
2023/10/15 09:00:48;;;;;;;1.70;1.20;;;15.60;67.40;14.40;96653.00;;;;5095542;28;20226;-79
2023/10/15 09:03:17;;;;;;;3.27;0.77;;;15.60;67.70;14.40;96651.00;;;;5094142;28;20199;-79
2023/10/15 09:05:44;;;;;;;2.40;1.17;;;15.60;67.90;14.40;96666.00;;;;5094912;28;20227;-79
2023/10/15 09:08:16;;;;;;;1.97;0.83;;;15.60;67.50;14.40;96671.00;;;;5094886;28;20316;-79
2023/10/15 09:10:43;;;;;;;1.93;1.00;;;15.50;67.80;14.30;96665.00;;;;5091010;28;20244;-79
2023/10/15 09:13:15;;;;;;;1.80;0.97;;;15.50;67.80;14.30;96665.00;;;;5096216;28;20206;-78
2023/10/15 09:15:44;;;;;;;2.10;0.87;;;15.40;67.50;14.20;96683.00;;;;5094429;28;20250;-78
2023/10/15 09:18:15;;;;;;;4.03;1.40;;;15.40;67.60;14.20;96674.00;;;;5094541;28;20202;-79
2023/10/15 09:20:44;;;;;;;3.03;0.93;;;15.40;67.60;14.10;96676.00;;;;5090674;28;20285;-79
2023/10/15 09:23:14;;;;;;;4.30;1.10;;;15.30;67.40;13.90;96675.00;;;;5094172;28;20286;-78
2023/10/15 09:25:42;;;;;;;2.43;1.10;;;15.20;67.80;13.80;96686.00;;;;5090421;28;20230;-78
2023/10/15 09:28:09;;;;;;;1.77;0.80;;;15.10;67.00;13.70;96677.00;;;;5093099;28;20206;-78
2023/10/15 09:30:37;;;;;;;2.20;0.90;;;15.00;67.20;13.60;96677.00;;;;5092593;28;20203;-78
2023/10/15 09:33:12;;;;;;;1.40;0.70;;;14.90;67.40;13.50;96672.00;;;;5087107;28;20198;-78
2023/10/15 09:35:39;;;;;;;1.77;0.80;;;14.80;68.50;13.40;96675.00;;;;5092202;28;20310;-78
2023/10/15 09:38:14;;;;;;;1.83;1.00;;;14.80;68.30;13.40;96690.00;;;;5091314;28;20195;-78
2023/10/15 09:40:43;;;;;;;1.40;0.87;;;14.70;68.30;13.40;96686.00;;;;5090842;28;20222;-78
2023/10/15 09:43:12;;;;;;;2.73;1.10;;;14.60;68.50;13.30;96689.00;;;;5094947;28;20249;-78
2023/10/15 09:45:42;;;;;;;1.43;0.90;;;14.60;68.50;13.30;96697.00;;;;5091674;28;20234;-78
2023/10/15 09:48:10;;;;;;;2.23;0.73;;;14.50;68.50;13.20;96687.00;;;;5095177;28;20198;-78
2023/10/15 09:50:39;;;;;;;2.63;1.07;;;14.50;69.00;13.20;96683.00;;;;5095380;28;20199;-79
2023/10/15 09:53:10;;;;;;;1.47;0.83;;;14.40;68.80;13.10;96695.00;;;;5094263;28;20205;-78
2023/10/15 09:55:40;;;;;;;1.60;0.80;;;14.40;68.40;13.10;96676.00;;;;5093528;28;20223;-78
2023/10/15 09:58:09;;;;;;;0.93;0.80;;;14.30;68.70;13.10;96669.00;;;;5089846;28;20287;-78
2023/10/15 10:00:59;;;;;;;1.00;0.87;;;14.30;69.60;13.10;96664.00;;;;5092539;28;20206;-78
2023/10/15 10:04:16;;;;;;;1.40;0.70;;;14.30;70.50;13.10;96666.00;;;;5091662;28;20210;-78
2023/10/15 10:07:14;;;;;;;1.87;0.87;;;14.30;70.80;13.20;96666.00;;;;5067629;28;20214;-78
2023/10/15 10:10:24;;;;;;;3.60;1.30;;;14.30;70.90;13.20;96663.00;;;;5093838;28;20217;-78
2023/10/15 10:13:29;;;;;;;1.63;0.70;;;14.40;71.10;13.30;96678.00;;;;5094118;28;20218;-78
2023/10/15 10:15:59;;;;;;;0.80;0.80;;;14.40;70.70;13.30;96679.00;;;;5092220;28;20227;-78
2023/10/15 10:18:28;;;;;;;2.07;1.00;;;14.50;70.50;13.40;96682.00;;;;5091420;28;20191;-78
2023/10/15 10:20:56;;;;;;;1.17;0.80;;;14.50;71.50;13.40;96683.00;;;;5092246;28;20200;-78
2023/10/15 10:23:24;;;;;;;1.10;0.90;;;14.50;71.30;13.50;96681.00;;;;5090102;28;20223;-78
2023/10/15 10:25:52;;;;;;;2.90;1.30;;;14.60;71.70;13.60;96685.00;;;;5091100;28;20245;-78
2023/10/15 10:28:25;;;;;;;1.60;0.93;;;14.60;72.30;13.60;96672.00;;;;5091430;28;20658;-79
2023/10/15 10:30:55;;;;;;;1.23;0.90;;;14.70;71.70;13.70;96678.00;;;;5091276;28;20195;-78
2023/10/15 10:33:54;;;;;;;0.83;0.80;;;14.70;71.90;13.80;96668.00;;;;5091064;28;20207;-79
2023/10/15 10:36:25;;;;;;;0.77;0.77;;;14.80;72.50;13.90;96665.00;;;;5090426;28;20234;-78
2023/10/15 10:39:07;;;;;;;1.20;0.80;;;14.90;71.70;13.90;96666.00;;;;5075341;28;20206;-78
2023/10/15 10:41:39;;;;;;;1.27;1.07;;;15.00;71.30;14.00;96659.00;;;;5093109;28;20195;-78
2023/10/15 10:44:10;;;;;;;2.57;0.90;;;15.00;71.40;14.00;96658.00;;;;5087912;28;20594;-79
2023/10/15 10:46:44;;;;;;;0.60;0.50;;;15.10;71.00;14.10;96639.00;;;;5091506;28;20246;-79
2023/10/15 10:49:15;;;;;;;0.50;0.50;;;15.20;70.90;14.10;96649.00;;;;5092880;28;20690;-78
2023/10/15 10:51:44;;;;;;;0.97;0.70;;;15.10;70.50;14.20;96641.00;;;;5092946;28;20195;-78
2023/10/15 10:54:27;;;;;;;2.00;0.77;;;15.20;70.60;14.20;96633.00;;;;5092622;28;20295;-78
2023/10/15 10:57:08;;;;;;;1.80;0.80;;;15.20;70.50;14.20;96628.00;;;;5092611;28;20318;-78
2023/10/15 10:59:39;;;;;;;1.77;0.77;;;15.30;70.80;14.30;96629.00;;;;5092959;28;20199;-78
2023/10/15 11:02:11;;;;;;;1.30;0.80;;;15.30;70.30;14.30;96617.00;;;;5087127;28;20203;-79
2023/10/15 11:04:40;;;;;;;1.17;0.57;;;15.30;69.30;14.30;96621.00;;;;5091472;28;20619;-79
2023/10/15 11:07:09;;;;;;;1.87;0.80;;;15.30;69.20;14.40;96619.00;;;;5092749;28;20617;-78
2023/10/15 11:09:38;;;;;;;1.90;0.73;;;15.40;69.20;14.40;96623.00;;;;5092791;28;20199;-79